createdAt,value
2017-10-28T00:00:46.636Z,8.13
2017-10-28T00:03:14.878Z,9.60
2017-10-28T00:05:43.888Z,8.03
2017-10-28T00:08:12.134Z,9.50
2017-10-28T00:10:41.139Z,8.07
2017-10-28T00:13:10.153Z,8.33
2017-10-28T00:15:38.423Z,7.90
2017-10-28T00:18:06.664Z,7.90
2017-10-28T00:20:34.913Z,9.67
2017-10-28T00:23:03.153Z,8.50
2017-10-28T00:25:31.414Z,8.50
2017-10-28T00:28:00.419Z,8.70
2017-10-28T00:30:34.105Z,9.20
2017-10-28T00:33:08.743Z,10.03
2017-10-28T00:35:42.591Z,8.50
2017-10-28T00:38:10.830Z,8.80
2017-10-28T00:40:39.081Z,8.90
2017-10-28T00:43:08.089Z,8.43
2017-10-28T00:45:36.342Z,9.30
2017-10-28T00:48:04.575Z,10.50
2017-10-28T00:50:32.820Z,9.50
2017-10-28T00:53:01.067Z,8.80
2017-10-28T00:55:29.321Z,8.27
2017-10-28T00:57:57.563Z,10.07
2017-10-28T01:00:25.808Z,9.90
2017-10-28T01:02:54.814Z,9.90
2017-10-28T01:05:23.066Z,9.47
2017-10-28T01:07:52.071Z,9.47
2017-10-28T01:10:21.078Z,9.70
2017-10-28T01:12:49.326Z,10.27
2017-10-28T01:15:18.337Z,9.23
2017-10-28T01:17:46.583Z,10.50
2017-10-28T01:20:14.838Z,10.67
2017-10-28T01:22:43.088Z,11.43
2017-10-28T01:25:11.349Z,9.80
2017-10-28T01:27:39.590Z,8.57
2017-10-28T01:30:08.610Z,7.27
2017-10-28T01:32:36.865Z,10.60
2017-10-28T01:35:05.112Z,11.30
2017-10-28T01:37:33.358Z,9.40
2017-10-28T01:40:01.607Z,11.00
2017-10-28T01:42:29.853Z,9.20
2017-10-28T01:44:58.112Z,11.37
2017-10-28T01:47:26.351Z,11.90
2017-10-28T01:49:54.603Z,10.60
2017-10-28T01:52:23.613Z,11.00
2017-10-28T01:54:51.861Z,12.30
2017-10-28T01:57:20.878Z,11.50
2017-10-28T01:59:49.137Z,12.27
2017-10-28T02:02:18.134Z,12.80
2017-10-28T02:04:47.150Z,11.83
2017-10-28T02:07:15.384Z,12.07
2017-10-28T02:09:44.406Z,11.00
2017-10-28T02:12:12.655Z,11.80
2017-10-28T02:14:41.674Z,13.90
2017-10-28T02:17:09.914Z,13.30
2017-10-28T02:19:38.167Z,12.03
2017-10-28T02:22:06.404Z,11.97
2017-10-28T02:24:34.650Z,11.30
2017-10-28T02:27:03.666Z,11.70
2017-10-28T02:29:31.910Z,13.10
2017-10-28T02:32:00.158Z,13.20
2017-10-28T02:34:28.407Z,8.80
2017-10-28T02:36:56.644Z,13.67
2017-10-28T02:39:25.669Z,12.43
2017-10-28T02:41:53.902Z,12.67
2017-10-28T02:44:22.158Z,12.17
2017-10-28T02:46:50.409Z,12.70
2017-10-28T02:49:18.653Z,12.37
2017-10-28T02:51:47.663Z,13.27
2017-10-28T02:54:15.926Z,13.40
2017-10-28T02:56:44.171Z,16.00
2017-10-28T02:59:12.432Z,13.60
2017-10-28T03:01:40.673Z,14.83
2017-10-28T03:04:08.918Z,14.63
2017-10-28T03:06:37.931Z,14.33
2017-10-28T03:09:06.173Z,14.00
2017-10-28T03:11:35.181Z,15.13
2017-10-28T03:14:04.198Z,14.07
2017-10-28T03:16:32.439Z,15.10
2017-10-28T03:19:01.450Z,14.77
2017-10-28T03:21:29.700Z,14.10
2017-10-28T03:23:58.061Z,14.70
2017-10-28T03:26:26.304Z,13.57
2017-10-28T03:28:54.555Z,14.03
2017-10-28T03:31:22.802Z,12.97
2017-10-28T03:33:51.811Z,13.80
2017-10-28T03:36:20.914Z,12.00
2017-10-28T03:38:49.163Z,11.67
2017-10-28T03:41:17.412Z,13.60
2017-10-28T03:43:45.664Z,11.47
2017-10-28T03:46:13.911Z,11.87
2017-10-28T03:48:42.919Z,12.03
2017-10-28T03:51:11.167Z,12.83
2017-10-28T03:53:40.174Z,12.40
2017-10-28T03:56:08.428Z,12.27
2017-10-28T03:58:36.677Z,13.50
2017-10-28T04:01:04.930Z,12.60
2017-10-28T04:03:33.317Z,13.13
2017-10-28T04:06:01.576Z,10.67
2017-10-28T04:08:29.818Z,11.20
2017-10-28T04:10:58.834Z,11.63
2017-10-28T04:13:27.077Z,11.60
2017-10-28T04:15:55.338Z,12.63
2017-10-28T04:18:23.582Z,10.70
2017-10-28T04:20:51.839Z,10.70
2017-10-28T04:23:20.079Z,10.63
2017-10-28T04:25:49.097Z,11.77
2017-10-28T04:28:17.339Z,10.30
2017-10-28T04:30:45.592Z,10.97
2017-10-28T04:33:13.832Z,8.37
2017-10-28T04:35:42.086Z,9.17
2017-10-28T04:38:11.097Z,9.30
2017-10-28T04:40:39.344Z,9.47
2017-10-28T04:43:08.358Z,9.97
2017-10-28T04:45:36.609Z,8.90
2017-10-28T04:48:05.619Z,7.73
2017-10-28T04:50:34.635Z,9.30
2017-10-28T04:53:02.871Z,8.13
2017-10-28T04:55:31.887Z,7.10
2017-10-28T04:58:00.132Z,8.13
2017-10-28T05:00:28.383Z,7.17
2017-10-28T05:02:56.636Z,8.33
2017-10-28T05:05:24.881Z,5.57
2017-10-28T05:07:53.887Z,6.57
2017-10-28T05:10:22.135Z,8.57
2017-10-28T05:12:51.148Z,6.83
2017-10-28T05:15:19.396Z,6.80
2017-10-28T05:17:47.642Z,8.00
2017-10-28T05:20:15.886Z,6.40
2017-10-28T05:22:44.140Z,7.00
2017-10-28T05:25:13.150Z,6.50
2017-10-28T05:27:41.389Z,6.13
2017-10-28T05:30:09.646Z,6.50
2017-10-28T05:32:37.901Z,7.07
2017-10-28T05:35:06.141Z,6.27
2017-10-28T05:37:34.406Z,5.73
2017-10-28T05:40:03.431Z,7.47
2017-10-28T05:42:31.719Z,6.47
2017-10-28T05:44:59.973Z,7.00
2017-10-28T05:47:28.220Z,6.03
2017-10-28T05:49:56.479Z,5.40
2017-10-28T05:52:24.724Z,5.77
2017-10-28T05:54:52.985Z,5.53
2017-10-28T05:57:21.229Z,5.60
2017-10-28T05:59:50.250Z,4.70
2017-10-28T06:02:18.560Z,5.83
2017-10-28T06:04:46.859Z,5.07
2017-10-28T06:07:15.903Z,4.63
2017-10-28T06:09:44.210Z,4.27
2017-10-28T06:12:12.485Z,5.57
2017-10-28T06:14:40.771Z,5.17
2017-10-28T06:17:09.052Z,5.60
2017-10-28T06:19:37.330Z,5.07
2017-10-28T06:22:05.628Z,5.27
2017-10-28T06:24:34.656Z,5.50
2017-10-28T06:27:02.941Z,6.13
2017-10-28T06:29:31.222Z,4.27
2017-10-28T06:31:59.496Z,4.63
2017-10-28T06:34:27.793Z,4.93
2017-10-28T06:36:56.085Z,4.00
2017-10-28T06:39:24.373Z,4.10
2017-10-28T06:41:53.436Z,3.30
2017-10-28T06:44:21.697Z,3.43
2017-10-28T06:46:49.993Z,2.97
2017-10-28T06:49:18.277Z,3.20
2017-10-28T06:51:46.572Z,4.23
2017-10-28T06:54:15.622Z,4.30
2017-10-28T06:56:43.913Z,3.60
2017-10-28T06:59:12.204Z,2.80
2017-10-28T07:01:40.489Z,3.20
2017-10-28T07:04:09.542Z,2.97
2017-10-28T07:06:37.808Z,2.77
2017-10-28T07:09:06.073Z,3.73
2017-10-28T07:11:34.357Z,3.03
2017-10-28T07:14:02.631Z,3.00
2017-10-28T07:16:31.329Z,2.73
2017-10-28T07:18:59.603Z,2.70
2017-10-28T07:21:27.903Z,3.60
2017-10-28T07:23:56.199Z,3.50
2017-10-28T07:26:25.237Z,2.00
2017-10-28T07:28:53.516Z,3.30
2017-10-28T07:31:21.823Z,2.80
2017-10-28T07:33:50.089Z,2.40
2017-10-28T07:36:18.370Z,2.97
2017-10-28T07:38:46.648Z,1.90
2017-10-28T07:41:14.918Z,1.97
2017-10-28T07:43:43.287Z,2.30
2017-10-28T07:46:11.613Z,3.70
2017-10-28T07:48:40.688Z,2.33
2017-10-28T07:51:09.001Z,2.07
2017-10-28T07:53:37.280Z,1.60
2017-10-28T07:56:05.823Z,2.13
2017-10-28T07:58:34.093Z,2.60
2017-10-28T08:01:02.389Z,2.10
2017-10-28T08:03:30.713Z,2.37
2017-10-28T08:05:59.003Z,2.97
2017-10-28T08:08:28.041Z,2.17
2017-10-28T08:10:56.351Z,3.23
2017-10-28T08:13:24.660Z,3.13
2017-10-28T08:15:52.959Z,2.90
2017-10-28T08:18:21.237Z,2.23
2017-10-28T08:20:49.539Z,2.70
2017-10-28T08:23:17.838Z,1.90
2017-10-28T08:25:46.904Z,3.17
2017-10-28T08:28:15.192Z,2.60
2017-10-28T08:30:43.519Z,3.20
2017-10-28T08:33:11.792Z,2.03
2017-10-28T08:35:40.104Z,3.20
2017-10-28T08:38:08.373Z,2.93
2017-10-28T08:40:36.643Z,2.37
2017-10-28T08:43:04.932Z,2.10
2017-10-28T08:45:33.196Z,2.40
2017-10-28T08:48:01.473Z,3.10
2017-10-28T08:50:29.744Z,2.13
2017-10-28T08:52:58.014Z,2.77
2017-10-28T08:55:26.297Z,2.57
2017-10-28T08:57:54.568Z,2.27
2017-10-28T09:00:22.866Z,2.07
2017-10-28T09:02:51.133Z,2.40
2017-10-28T09:05:19.411Z,2.23
2017-10-28T09:07:47.684Z,2.33
2017-10-28T09:10:15.948Z,2.60
2017-10-28T09:12:44.254Z,2.30
2017-10-28T09:15:12.513Z,2.57
2017-10-28T09:17:40.819Z,2.00
2017-10-28T09:20:09.081Z,2.30
2017-10-28T09:22:39.109Z,2.80
2017-10-28T09:25:07.377Z,2.07
2017-10-28T09:27:35.653Z,1.90
2017-10-28T09:30:03.939Z,2.80
2017-10-28T09:32:32.227Z,2.23
2017-10-28T09:35:01.279Z,3.10
2017-10-28T09:37:29.558Z,2.73
2017-10-28T09:39:57.803Z,2.80
2017-10-28T09:42:26.066Z,2.80
2017-10-28T09:44:55.112Z,2.73
2017-10-28T09:47:24.135Z,3.00
2017-10-28T09:49:53.139Z,2.80
2017-10-28T09:52:22.142Z,2.40
2017-10-28T09:54:50.393Z,2.73
2017-10-28T09:57:18.659Z,2.67
2017-10-28T09:59:46.881Z,3.17
2017-10-28T10:02:15.171Z,2.67
2017-10-28T10:04:43.443Z,3.93
2017-10-28T10:07:11.703Z,2.27
2017-10-28T10:09:39.960Z,3.20
2017-10-28T10:12:08.991Z,2.30
2017-10-28T10:14:37.271Z,2.43
2017-10-28T10:17:05.548Z,2.17
2017-10-28T10:19:33.800Z,2.00
2017-10-28T10:22:02.049Z,1.83
2017-10-28T10:24:31.087Z,3.57
2017-10-28T10:27:00.179Z,2.77
2017-10-28T10:29:28.451Z,2.60
2017-10-28T10:31:57.652Z,2.83
2017-10-28T10:34:25.956Z,3.30
2017-10-28T10:36:55.369Z,2.93
2017-10-28T10:39:23.708Z,3.50
2017-10-28T10:41:52.944Z,3.27
2017-10-28T10:44:21.282Z,4.40
2017-10-28T10:46:55.236Z,3.47
2017-10-28T10:49:23.522Z,2.70
2017-10-28T10:51:52.605Z,3.30
2017-10-28T10:54:20.852Z,2.80
2017-10-28T10:56:49.149Z,2.23
2017-10-28T10:59:17.497Z,3.10
2017-10-28T11:01:45.843Z,2.80
2017-10-28T11:04:14.944Z,3.10
2017-10-28T11:06:43.207Z,3.50
2017-10-28T11:09:12.247Z,2.80
2017-10-28T11:11:40.532Z,4.37
2017-10-28T11:14:08.789Z,3.33
2017-10-28T11:16:37.065Z,2.17
2017-10-28T11:19:05.336Z,3.43
2017-10-28T11:21:33.607Z,3.80
2017-10-28T11:24:01.896Z,3.70
2017-10-28T11:26:30.180Z,3.23
2017-10-28T11:28:58.483Z,4.10
2017-10-28T11:31:26.752Z,3.53
2017-10-28T11:33:55.017Z,3.80
2017-10-28T11:36:23.279Z,3.40
2017-10-28T11:38:51.551Z,4.30
2017-10-28T11:41:19.803Z,4.00
2017-10-28T11:43:48.092Z,4.70
2017-10-28T11:46:16.338Z,3.93
2017-10-28T11:48:45.350Z,4.30
2017-10-28T11:51:13.590Z,5.00
2017-10-28T11:53:41.834Z,4.53
2017-10-28T11:56:10.069Z,5.20
2017-10-28T11:58:38.319Z,5.33
2017-10-28T12:01:06.555Z,4.20
2017-10-28T12:03:34.803Z,4.77
2017-10-28T12:06:03.041Z,5.43
2017-10-28T12:08:31.288Z,5.10
2017-10-28T12:10:59.523Z,4.43
2017-10-28T12:13:27.776Z,4.80
2017-10-28T12:15:56.780Z,5.23
2017-10-28T12:18:25.792Z,5.20
2017-10-28T12:20:54.046Z,5.33
2017-10-28T12:23:23.056Z,4.73
2017-10-28T12:25:51.297Z,5.40
2017-10-28T12:28:20.315Z,5.23
2017-10-28T12:30:48.568Z,5.73
2017-10-28T12:33:16.803Z,5.97
2017-10-28T12:35:45.035Z,4.53
2017-10-28T12:38:14.043Z,6.23
2017-10-28T12:40:42.270Z,5.53
2017-10-28T12:43:10.517Z,4.57
2017-10-28T12:45:38.751Z,5.43
2017-10-28T12:48:07.762Z,5.00
2017-10-28T12:50:36.006Z,5.40
2017-10-28T12:53:04.240Z,6.00
2017-10-28T12:55:33.243Z,6.10
2017-10-28T12:58:01.496Z,5.77
2017-10-28T13:00:29.734Z,7.07
2017-10-28T13:02:58.745Z,5.47
2017-10-28T13:05:26.982Z,5.87
2017-10-28T13:07:55.230Z,5.53
2017-10-28T13:10:23.461Z,5.80
2017-10-28T13:12:51.701Z,6.73
2017-10-28T13:15:19.943Z,6.80
2017-10-28T13:17:48.187Z,4.60
2017-10-28T13:20:16.426Z,6.80
2017-10-28T13:22:44.667Z,7.63
2017-10-28T13:25:12.929Z,6.80
2017-10-28T13:27:41.179Z,5.70
2017-10-28T13:30:10.184Z,6.50
2017-10-28T13:32:38.447Z,7.20
2017-10-28T13:35:07.445Z,6.97
2017-10-28T13:37:35.687Z,6.40
2017-10-28T13:40:03.922Z,7.60
2017-10-28T13:42:32.172Z,6.10
2017-10-28T13:45:01.171Z,7.90
2017-10-28T13:47:29.415Z,5.80
2017-10-28T13:49:57.641Z,7.03
2017-10-28T13:52:25.886Z,6.40
2017-10-28T13:54:54.122Z,6.53
2017-10-28T13:57:22.369Z,6.40
2017-10-28T13:59:50.615Z,8.23
2017-10-28T14:02:19.626Z,7.10
2017-10-28T14:04:47.874Z,7.53
2017-10-28T14:07:16.885Z,8.20
2017-10-28T14:09:45.144Z,8.80
2017-10-28T14:12:14.151Z,6.40
2017-10-28T14:14:42.399Z,6.97
2017-10-28T14:17:11.402Z,7.87
2017-10-28T14:19:40.418Z,7.00
2017-10-28T14:22:08.661Z,8.53
2017-10-28T14:24:37.672Z,7.60
2017-10-28T14:27:06.682Z,12.30
2017-10-28T14:29:34.920Z,7.40
2017-10-28T14:32:03.935Z,8.10
2017-10-28T14:34:32.178Z,6.70
2017-10-28T14:37:00.426Z,8.53
2017-10-28T14:39:28.666Z,6.23
2017-10-28T14:41:56.906Z,7.23
2017-10-28T14:44:25.164Z,8.50
2017-10-28T14:46:53.398Z,4.93
2017-10-28T14:49:21.678Z,7.93
2017-10-28T14:51:50.658Z,7.90
2017-10-28T14:54:18.903Z,7.67
2017-10-28T14:56:47.152Z,6.77
2017-10-28T14:59:15.390Z,6.40
2017-10-28T15:01:43.618Z,6.57
2017-10-28T15:04:12.687Z,5.70
2017-10-28T15:06:40.935Z,6.13
2017-10-28T15:09:09.180Z,6.80
2017-10-28T15:11:38.192Z,7.10
2017-10-28T15:14:07.203Z,5.97
2017-10-28T15:16:35.431Z,5.40
2017-10-28T15:19:03.679Z,4.03
2017-10-28T15:21:31.914Z,4.67
2017-10-28T15:24:00.991Z,5.13
2017-10-28T15:26:30.002Z,4.40
2017-10-28T15:28:58.250Z,4.93
2017-10-28T15:31:26.493Z,4.57
2017-10-28T15:33:54.760Z,4.07
2017-10-28T15:36:22.989Z,4.90
2017-10-28T15:38:52.005Z,5.20
2017-10-28T15:41:20.256Z,4.40
2017-10-28T15:43:49.269Z,5.00
2017-10-28T15:46:17.508Z,4.20
2017-10-28T15:48:45.765Z,4.13
2017-10-28T15:51:13.996Z,4.23
2017-10-28T15:53:42.238Z,3.93
2017-10-28T15:56:11.241Z,3.80
2017-10-28T15:58:40.260Z,3.50
2017-10-28T16:01:08.498Z,4.20
2017-10-28T16:03:37.519Z,4.03
2017-10-28T16:06:05.790Z,3.90
2017-10-28T16:08:34.124Z,3.70
2017-10-28T16:11:02.377Z,3.63
2017-10-28T16:13:30.647Z,4.00
2017-10-28T16:15:58.904Z,3.80
2017-10-28T16:18:27.164Z,4.80
2017-10-28T16:20:56.200Z,4.03
2017-10-28T16:23:24.506Z,2.63
2017-10-28T16:25:52.771Z,3.53
2017-10-28T16:28:21.036Z,4.10
2017-10-28T16:30:49.306Z,2.70
2017-10-28T16:33:17.549Z,3.30
2017-10-28T16:35:45.785Z,4.80
2017-10-28T16:38:14.289Z,5.20
2017-10-28T16:40:43.306Z,4.00
2017-10-28T16:43:11.553Z,3.90
2017-10-28T16:45:40.587Z,3.27
2017-10-28T16:48:08.839Z,3.70
2017-10-28T16:50:37.112Z,4.50
2017-10-28T16:53:05.547Z,4.20
2017-10-28T16:55:33.810Z,3.07
2017-10-28T16:58:02.088Z,3.50
2017-10-28T17:00:30.500Z,4.00
2017-10-28T17:03:01.550Z,3.97
2017-10-28T17:05:30.574Z,3.63
2017-10-28T17:07:58.895Z,4.00
2017-10-28T17:10:27.223Z,3.97
2017-10-28T17:12:55.519Z,3.10
2017-10-28T17:15:23.827Z,3.27
2017-10-28T17:17:52.130Z,4.83
2017-10-28T17:20:21.234Z,4.30
2017-10-28T17:22:49.523Z,3.53
2017-10-28T17:25:17.848Z,4.70
2017-10-28T17:27:46.146Z,4.10
2017-10-28T17:30:15.166Z,4.10
2017-10-28T17:32:43.437Z,3.50
2017-10-28T17:35:11.693Z,2.90
2017-10-28T17:37:40.691Z,3.40
2017-10-28T17:40:09.711Z,3.33
2017-10-28T17:42:37.959Z,3.70
2017-10-28T17:45:07.080Z,3.70
2017-10-28T17:47:35.339Z,3.60
2017-10-28T17:50:03.622Z,2.90
2017-10-28T17:52:31.883Z,4.50
2017-10-28T17:55:00.922Z,3.80
2017-10-28T17:57:29.172Z,3.20
2017-10-28T17:59:57.677Z,4.63
2017-10-28T18:02:25.935Z,3.90
2017-10-28T18:04:54.176Z,3.70
2017-10-28T18:07:22.410Z,3.83
2017-10-28T18:09:50.661Z,3.93
2017-10-28T18:12:19.672Z,4.00
2017-10-28T18:14:47.925Z,4.50
2017-10-28T18:17:16.158Z,4.17
2017-10-28T18:19:44.430Z,2.30
2017-10-28T18:22:13.435Z,3.97
2017-10-28T18:24:41.667Z,4.00
2017-10-28T18:27:09.915Z,4.10
2017-10-28T18:29:38.150Z,3.13
2017-10-28T18:32:07.164Z,4.10
2017-10-28T18:34:35.401Z,3.30
2017-10-28T18:37:03.645Z,3.77
2017-10-28T18:39:31.904Z,4.27
2017-10-28T18:42:00.169Z,3.60
2017-10-28T18:44:28.401Z,3.67
2017-10-28T18:46:56.650Z,3.10
2017-10-28T18:49:24.897Z,3.93
2017-10-28T18:51:53.143Z,3.73
2017-10-28T18:54:22.148Z,3.77
2017-10-28T18:56:50.386Z,3.40
2017-10-28T18:59:18.624Z,3.83
2017-10-28T19:01:46.869Z,4.83
2017-10-28T19:04:15.106Z,3.93
2017-10-28T19:06:43.357Z,3.93
2017-10-28T19:09:11.600Z,4.43
2017-10-28T19:11:39.847Z,3.40
2017-10-28T19:14:08.862Z,3.27
2017-10-28T19:16:37.867Z,3.53
2017-10-28T19:19:06.100Z,4.20
2017-10-28T19:21:34.372Z,4.70
2017-10-28T19:24:02.614Z,3.47
2017-10-28T19:26:30.852Z,4.73
2017-10-28T19:28:59.866Z,4.67
2017-10-28T19:31:28.108Z,3.80
2017-10-28T19:33:57.123Z,6.07
2017-10-28T19:36:25.360Z,5.20
2017-10-28T19:38:53.615Z,4.80
2017-10-28T19:41:21.849Z,5.83
2017-10-28T19:43:50.108Z,6.30
2017-10-28T19:46:19.114Z,5.37
2017-10-28T19:48:47.402Z,7.77
2017-10-28T19:51:15.634Z,8.57
2017-10-28T19:53:43.879Z,4.87
2017-10-28T19:56:12.124Z,5.17
2017-10-28T19:58:40.385Z,9.60
2017-10-28T20:01:09.393Z,8.47
2017-10-28T20:03:37.635Z,9.60
2017-10-28T20:06:05.874Z,7.07
2017-10-28T20:08:34.118Z,11.40
2017-10-28T20:11:02.407Z,10.10
2017-10-28T20:13:30.655Z,11.20
2017-10-28T20:15:59.677Z,10.77
2017-10-28T20:18:27.918Z,9.80
2017-10-28T20:20:56.943Z,6.53
2017-10-28T20:23:25.219Z,7.53
2017-10-28T20:25:53.462Z,8.70
2017-10-28T20:28:22.488Z,6.33
2017-10-28T20:30:50.737Z,9.00
2017-10-28T20:33:19.008Z,10.00
2017-10-28T20:35:48.025Z,9.23
2017-10-28T20:38:16.291Z,5.03
2017-10-28T20:40:44.633Z,6.40
2017-10-28T20:43:12.884Z,7.33
2017-10-28T20:45:41.158Z,8.30
2017-10-28T20:48:09.469Z,5.10
2017-10-28T20:50:37.717Z,6.60
2017-10-28T20:53:06.011Z,5.23
2017-10-28T20:55:34.288Z,6.53
2017-10-28T20:58:02.552Z,6.57
2017-10-28T21:00:30.819Z,5.50
2017-10-28T21:02:59.840Z,5.03
2017-10-28T21:05:28.134Z,4.63
2017-10-28T21:07:57.180Z,4.70
2017-10-28T21:10:26.253Z,4.73
2017-10-28T21:12:54.529Z,5.50
2017-10-28T21:15:22.790Z,4.10
2017-10-28T21:17:51.067Z,5.17
2017-10-28T21:20:19.344Z,7.70
2017-10-28T21:22:47.671Z,5.77
2017-10-28T21:25:15.954Z,6.87
2017-10-28T21:27:45.013Z,7.30
2017-10-28T21:30:13.305Z,5.27
2017-10-28T21:32:41.558Z,6.00
2017-10-28T21:35:09.825Z,5.00
2017-10-28T21:37:38.089Z,5.30
2017-10-28T21:40:06.365Z,7.03
2017-10-28T21:42:34.621Z,6.70
2017-10-28T21:45:03.726Z,6.70
2017-10-28T21:47:31.974Z,4.90
2017-10-28T21:50:00.237Z,6.90
2017-10-28T21:52:28.506Z,6.87
2017-10-28T21:54:56.759Z,5.60
2017-10-28T21:57:25.008Z,5.47
2017-10-28T21:59:53.253Z,6.60
2017-10-28T22:02:21.492Z,5.80
2017-10-28T22:04:49.810Z,4.93
2017-10-28T22:07:18.853Z,4.83
2017-10-28T22:09:47.117Z,6.00
2017-10-28T22:12:15.403Z,7.77
2017-10-28T22:14:43.781Z,6.90
2017-10-28T22:17:12.062Z,6.20
2017-10-28T22:19:40.321Z,4.97
2017-10-28T22:22:08.589Z,6.87
2017-10-28T22:24:36.851Z,5.27
2017-10-28T22:27:05.098Z,5.07
2017-10-28T22:29:34.125Z,4.83
2017-10-28T22:32:02.365Z,3.30
2017-10-28T22:34:30.618Z,4.53
2017-10-28T22:36:58.860Z,5.30
2017-10-28T22:39:27.135Z,3.87
2017-10-28T22:41:55.384Z,4.97
2017-10-28T22:44:24.411Z,4.93
2017-10-28T22:46:52.649Z,3.33
2017-10-28T22:49:21.665Z,5.20
2017-10-28T22:51:49.902Z,5.60
2017-10-28T22:54:18.920Z,3.70
2017-10-28T22:56:47.193Z,4.30
2017-10-28T22:59:15.446Z,4.50
2017-10-28T23:01:43.690Z,3.87
2017-10-28T23:04:11.939Z,4.97
2017-10-28T23:06:40.228Z,4.60
2017-10-28T23:09:08.493Z,4.00
2017-10-28T23:11:36.746Z,4.10
2017-10-28T23:14:05.045Z,3.90
2017-10-28T23:16:33.332Z,3.40
2017-10-28T23:19:01.568Z,3.27
2017-10-28T23:21:29.832Z,4.90
2017-10-28T23:23:58.864Z,4.50
2017-10-28T23:26:27.134Z,5.30
2017-10-28T23:28:55.423Z,4.03
2017-10-28T23:31:23.675Z,3.93
2017-10-28T23:33:51.935Z,5.80
2017-10-28T23:36:20.944Z,5.80
2017-10-28T23:38:49.191Z,5.00
2017-10-28T23:41:18.202Z,5.17
2017-10-28T23:43:48.625Z,5.30
2017-10-28T23:46:17.703Z,5.60
2017-10-28T23:48:46.769Z,3.90
2017-10-28T23:51:15.077Z,5.53
2017-10-28T23:53:44.154Z,2.90
2017-10-28T23:56:12.486Z,5.10
2017-10-28T23:58:40.818Z,4.70
